createdAt,value
2022-10-24T00:01:14.800Z,30.20
2022-10-24T00:03:42.191Z,33.67
2022-10-24T00:06:10.866Z,32.37
2022-10-24T00:08:39.161Z,31.43
2022-10-24T00:11:15.718Z,29.73
2022-10-24T00:13:43.256Z,32.10
2022-10-24T00:16:11.235Z,30.40
2022-10-24T00:18:38.852Z,28.73
2022-10-24T00:21:07.411Z,30.27
2022-10-24T00:23:34.958Z,29.40
2022-10-24T00:26:04.012Z,30.33
2022-10-24T00:28:32.651Z,29.90
2022-10-24T00:31:00.030Z,27.20
2022-10-24T00:33:27.267Z,29.67
2022-10-24T00:35:54.186Z,28.07
2022-10-24T00:38:21.434Z,30.43
2022-10-24T00:40:48.285Z,28.33
2022-10-24T00:43:17.574Z,28.50
2022-10-24T00:45:55.144Z,29.53
2022-10-24T00:48:25.322Z,32.10
2022-10-24T00:51:04.819Z,31.27
2022-10-24T00:53:34.897Z,29.70
2022-10-24T00:56:04.925Z,30.00
2022-10-24T00:58:35.147Z,29.23
2022-10-24T01:01:03.292Z,27.83
2022-10-24T01:03:30.309Z,26.70
2022-10-24T01:06:10.100Z,25.90
2022-10-24T01:08:50.706Z,24.03
2022-10-24T01:11:36.123Z,25.83
2022-10-24T01:14:17.621Z,24.40
2022-10-24T01:16:56.794Z,27.10
2022-10-24T01:20:01.450Z,24.37
2022-10-24T01:22:55.790Z,32.40
2022-10-24T01:25:38.900Z,25.80
2022-10-24T01:28:32.718Z,23.77
2022-10-24T01:31:13.843Z,22.87
2022-10-24T01:33:49.570Z,25.43
2022-10-24T01:36:50.057Z,25.53
2022-10-24T01:39:21.155Z,25.67
2022-10-24T01:41:48.777Z,28.17
2022-10-24T01:44:22.404Z,26.43
2022-10-24T01:46:57.037Z,26.53
2022-10-24T01:49:29.870Z,27.30
2022-10-24T01:52:01.578Z,28.10
2022-10-24T01:54:30.981Z,29.00
2022-10-24T01:56:58.289Z,27.63
2022-10-24T01:59:30.649Z,26.93
2022-10-24T02:02:13.375Z,24.67
2022-10-24T02:04:46.465Z,24.13
2022-10-24T02:07:14.144Z,23.33
2022-10-24T02:09:43.563Z,25.70
2022-10-24T02:12:14.450Z,25.97
2022-10-24T02:14:46.853Z,26.33
2022-10-24T02:17:14.387Z,29.00
2022-10-24T02:19:42.086Z,28.73
2022-10-24T02:22:33.324Z,26.87
2022-10-24T02:25:08.926Z,28.77
2022-10-24T02:28:11.733Z,32.20
2022-10-24T02:30:44.462Z,30.83
2022-10-24T02:33:12.622Z,31.80
2022-10-24T02:35:41.441Z,29.73
2022-10-24T02:38:31.495Z,29.30
2022-10-24T02:41:01.003Z,33.20
2022-10-24T02:43:30.423Z,33.03
2022-10-24T02:45:58.631Z,33.97
2022-10-24T02:48:33.485Z,36.07
2022-10-24T02:51:00.847Z,32.07
2022-10-24T02:53:28.918Z,36.23
2022-10-24T02:55:56.187Z,36.27
2022-10-24T02:58:23.211Z,37.10
2022-10-24T03:00:50.146Z,38.93
2022-10-24T03:03:17.190Z,35.63
2022-10-24T03:05:44.018Z,37.33
2022-10-24T03:08:12.429Z,41.67
2022-10-24T03:10:39.228Z,40.47
2022-10-24T03:13:06.485Z,41.73
2022-10-24T03:15:33.384Z,40.57
2022-10-24T03:18:00.391Z,41.27
2022-10-24T03:20:27.227Z,42.03
2022-10-24T03:22:54.349Z,39.73
2022-10-24T03:25:21.224Z,38.57
2022-10-24T03:27:48.401Z,40.67
2022-10-24T03:30:15.225Z,39.07
2022-10-24T03:32:42.555Z,38.17
2022-10-24T03:35:11.829Z,38.37
2022-10-24T03:37:41.511Z,37.17
2022-10-24T03:40:09.942Z,34.77
2022-10-24T03:42:37.069Z,34.87
2022-10-24T03:45:04.218Z,36.23
2022-10-24T03:47:31.568Z,35.23
2022-10-24T03:49:58.360Z,34.97
2022-10-24T03:52:26.087Z,38.07
2022-10-24T03:54:52.925Z,34.17
2022-10-24T03:57:22.984Z,36.03
2022-10-24T03:59:49.991Z,36.27
2022-10-24T04:02:17.008Z,36.00
2022-10-24T04:04:43.767Z,36.13
2022-10-24T04:07:10.914Z,36.50
2022-10-24T04:09:37.714Z,38.50
2022-10-24T04:12:05.182Z,38.23
2022-10-24T04:14:32.022Z,37.83
2022-10-24T04:16:59.236Z,39.70
2022-10-24T04:19:26.164Z,35.50
2022-10-24T04:21:53.650Z,36.43
2022-10-24T04:24:20.493Z,34.53
2022-10-24T04:26:47.541Z,32.97
2022-10-24T04:29:14.448Z,35.43
2022-10-24T04:31:41.487Z,39.60
2022-10-24T04:34:08.384Z,48.40
2022-10-24T04:36:35.608Z,45.40
2022-10-24T04:39:06.985Z,52.03
2022-10-24T04:41:34.120Z,45.67
2022-10-24T04:44:00.874Z,46.67
2022-10-24T04:46:28.046Z,44.67
2022-10-24T04:48:54.965Z,43.20
2022-10-24T04:51:22.689Z,44.20
2022-10-24T04:53:50.636Z,45.07
2022-10-24T04:56:19.232Z,42.67
2022-10-24T04:58:46.177Z,41.60
2022-10-24T05:01:13.247Z,40.57
2022-10-24T05:03:40.272Z,40.90
2022-10-24T05:06:07.323Z,43.47
2022-10-24T05:08:34.268Z,43.40
2022-10-24T05:11:02.028Z,42.27
2022-10-24T05:13:31.749Z,42.90
2022-10-24T05:16:02.110Z,43.20
2022-10-24T05:18:29.000Z,42.47
2022-10-24T05:21:00.627Z,43.97
2022-10-24T05:23:27.588Z,43.20
2022-10-24T05:25:54.569Z,45.30
2022-10-24T05:28:21.331Z,43.30
2022-10-24T05:30:48.732Z,45.53
2022-10-24T05:33:15.666Z,47.33
2022-10-24T05:35:42.668Z,44.57
2022-10-24T05:38:09.820Z,43.83
2022-10-24T05:40:36.823Z,42.30
2022-10-24T05:43:03.685Z,40.80
2022-10-24T05:45:30.810Z,42.03
2022-10-24T05:47:57.737Z,41.87
2022-10-24T05:50:26.748Z,37.93
2022-10-24T05:52:53.804Z,39.23
2022-10-24T05:55:20.700Z,38.40
2022-10-24T05:57:47.926Z,40.50
2022-10-24T06:00:16.880Z,40.83
2022-10-24T06:02:44.432Z,39.70
2022-10-24T06:05:12.260Z,37.97
2022-10-24T06:07:41.966Z,40.43
2022-10-24T06:10:10.330Z,38.37
2022-10-24T06:12:37.247Z,38.27
2022-10-24T06:15:07.186Z,40.97
2022-10-24T06:17:34.149Z,40.93
2022-10-24T06:20:01.126Z,40.93
2022-10-24T06:22:29.718Z,42.07
2022-10-24T06:24:57.119Z,42.27
2022-10-24T06:27:24.406Z,43.30
2022-10-24T06:29:51.408Z,40.70
2022-10-24T06:32:18.984Z,43.50
2022-10-24T06:34:46.051Z,43.57
2022-10-24T06:37:12.909Z,42.13
2022-10-24T06:39:40.305Z,43.57
2022-10-24T06:42:07.056Z,40.80
2022-10-24T06:44:34.170Z,41.53
2022-10-24T06:47:00.866Z,40.47
2022-10-24T06:49:28.120Z,39.07
2022-10-24T06:51:54.911Z,41.47
2022-10-24T06:54:23.257Z,39.00
2022-10-24T06:56:52.177Z,41.23
2022-10-24T06:59:19.341Z,41.80
2022-10-24T07:01:46.459Z,40.80
2022-10-24T07:04:13.610Z,40.00
2022-10-24T07:06:40.726Z,40.83
2022-10-24T07:09:11.478Z,40.60
2022-10-24T07:11:41.266Z,41.60
2022-10-24T07:14:09.532Z,42.97
2022-10-24T07:16:36.676Z,42.30
2022-10-24T07:19:04.754Z,40.67
2022-10-24T07:21:33.341Z,38.50
2022-10-24T07:24:01.325Z,37.53
2022-10-24T07:26:29.359Z,36.37
2022-10-24T07:31:34.705Z,36.00
2022-10-24T07:34:06.140Z,34.87
2022-10-24T07:36:32.936Z,34.60
2022-10-24T07:39:01.003Z,35.57
2022-10-24T07:41:31.648Z,33.40
2022-10-24T07:44:00.106Z,32.93
2022-10-24T07:46:27.036Z,32.23
2022-10-24T07:48:54.657Z,31.83
2022-10-24T07:51:22.190Z,32.43
2022-10-24T07:53:49.922Z,28.80
2022-10-24T07:56:17.824Z,29.42
2022-10-24T07:58:46.653Z,30.43
2022-10-24T08:01:17.415Z,29.50
2022-10-24T08:03:44.952Z,27.90
2022-10-24T08:06:15.520Z,28.37
2022-10-24T08:08:42.706Z,26.77
2022-10-24T08:11:11.839Z,26.10
2022-10-24T08:13:39.195Z,24.07
2022-10-24T08:16:07.797Z,23.73
2022-10-24T08:18:39.432Z,21.10
2022-10-24T08:21:10.591Z,19.67
2022-10-24T08:23:40.714Z,16.80
2022-10-24T08:26:08.716Z,18.00
2022-10-24T08:28:35.920Z,15.52
2022-10-24T08:31:06.194Z,17.38
2022-10-24T08:33:33.595Z,17.42
2022-10-24T08:36:04.682Z,16.67
2022-10-24T08:38:32.335Z,18.63
2022-10-24T08:41:00.087Z,16.98
2022-10-24T08:43:27.580Z,16.90
2022-10-24T08:46:15.067Z,15.32
2022-10-24T08:48:51.328Z,13.57
2022-10-24T08:51:30.837Z,13.70
2022-10-24T08:53:59.846Z,12.05
2022-10-24T08:56:32.632Z,11.82
2022-10-24T08:59:03.369Z,10.50
2022-10-24T09:01:31.128Z,10.98
2022-10-24T09:04:03.455Z,10.43
2022-10-24T09:06:32.443Z,10.00
2022-10-24T09:09:16.768Z,9.77
2022-10-24T09:11:58.692Z,9.80
2022-10-24T09:14:36.674Z,10.45
2022-10-24T09:17:31.255Z,10.15
2022-10-24T09:20:06.067Z,11.18
2022-10-24T09:22:37.569Z,10.68
2022-10-24T09:25:16.390Z,10.73
2022-10-24T09:27:44.130Z,10.32
2022-10-24T09:30:20.460Z,9.50
2022-10-24T09:32:48.179Z,9.75
2022-10-24T09:35:21.562Z,11.77
2022-10-24T09:37:50.303Z,12.25
2022-10-24T09:40:20.705Z,12.18
2022-10-24T09:42:52.625Z,12.88
2022-10-24T09:45:34.032Z,13.15
2022-10-24T09:48:14.160Z,13.38
2022-10-24T09:50:42.567Z,12.73
2022-10-24T09:53:23.411Z,11.75
2022-10-24T09:55:53.567Z,12.18
2022-10-24T09:58:29.677Z,12.00
2022-10-24T10:00:59.794Z,11.00
2022-10-24T10:03:27.400Z,10.48
2022-10-24T10:06:02.220Z,11.32
2022-10-24T10:08:31.902Z,12.45
2022-10-24T10:11:03.940Z,13.70
2022-10-24T10:13:37.716Z,14.05
2022-10-24T10:16:07.831Z,12.88
2022-10-24T10:18:34.648Z,13.93
2022-10-24T10:21:08.780Z,13.75
2022-10-24T10:23:47.651Z,13.20
2022-10-24T10:26:20.873Z,12.85
2022-10-24T10:28:52.642Z,10.45
2022-10-24T10:31:23.457Z,11.27
2022-10-24T10:34:21.594Z,11.88
2022-10-24T10:37:26.402Z,10.15
2022-10-24T10:40:05.079Z,10.25
2022-10-24T10:42:49.100Z,9.93
2022-10-24T10:45:36.303Z,9.98
2022-10-24T10:48:32.850Z,10.00
2022-10-24T10:51:08.924Z,10.25
2022-10-24T10:53:51.004Z,10.63
2022-10-24T10:56:39.487Z,11.68
2022-10-24T10:59:28.537Z,11.23
2022-10-24T11:02:14.935Z,11.13
2022-10-24T11:04:42.392Z,9.80
2022-10-24T11:07:38.434Z,10.07
2022-10-24T11:10:09.656Z,9.60
2022-10-24T11:12:40.048Z,7.32
2022-10-24T11:15:24.364Z,7.15
2022-10-24T11:18:21.290Z,7.28
2022-10-24T11:20:53.990Z,7.53
2022-10-24T11:23:47.258Z,6.28
2022-10-24T11:26:28.320Z,7.50
2022-10-24T11:29:18.191Z,7.80
2022-10-24T11:31:52.701Z,6.85
2022-10-24T11:34:26.848Z,6.90
2022-10-24T11:37:14.820Z,6.68
2022-10-24T11:39:54.790Z,6.45
2022-10-24T11:42:36.445Z,6.03
2022-10-24T11:45:12.008Z,6.22
2022-10-24T11:47:46.513Z,5.97
2022-10-24T11:50:24.716Z,6.63
2022-10-24T11:52:58.536Z,6.25
2022-10-24T11:55:37.403Z,6.97
2022-10-24T11:58:12.757Z,6.43
2022-10-24T12:00:54.566Z,6.32
2022-10-24T12:03:42.922Z,6.20
2022-10-24T12:06:52.708Z,7.25
2022-10-24T12:09:40.645Z,7.03
2022-10-24T12:12:26.430Z,6.47
2022-10-24T12:15:08.412Z,6.45
2022-10-24T12:17:59.557Z,6.65
2022-10-24T12:20:27.706Z,6.45
2022-10-24T12:22:55.180Z,7.55
2022-10-24T12:25:29.119Z,6.95
2022-10-24T12:28:01.313Z,6.55
2022-10-24T12:30:32.281Z,6.55
2022-10-24T12:33:23.469Z,6.80
2022-10-24T12:35:52.922Z,6.95
2022-10-24T12:38:28.705Z,7.13
2022-10-24T12:41:10.147Z,7.35
2022-10-24T12:43:42.852Z,7.53
2022-10-24T12:46:35.879Z,6.50
2022-10-24T12:49:02.549Z,6.30
2022-10-24T12:51:30.957Z,6.53
2022-10-24T12:54:05.116Z,8.32
2022-10-24T12:56:33.924Z,7.07
2022-10-24T12:59:20.467Z,6.68
2022-10-24T13:02:11.485Z,7.05
2022-10-24T13:05:12.432Z,7.85
2022-10-24T13:08:04.112Z,6.88
2022-10-24T13:11:04.749Z,7.38
2022-10-24T13:13:56.261Z,8.77
2022-10-24T13:16:35.716Z,7.72
2022-10-24T13:19:15.607Z,7.45
2022-10-24T13:21:52.937Z,7.05
2022-10-24T13:24:36.202Z,7.18
2022-10-24T13:27:11.775Z,7.70
2022-10-24T13:29:40.084Z,6.82
2022-10-24T13:32:06.801Z,7.68
2022-10-24T13:34:42.893Z,7.85
2022-10-24T13:37:09.561Z,7.90
2022-10-24T13:39:45.663Z,7.93
2022-10-24T13:42:43.486Z,7.95
2022-10-24T13:45:33.082Z,8.10
2022-10-24T13:48:07.931Z,7.38
2022-10-24T13:50:41.776Z,7.32
2022-10-24T13:53:31.080Z,8.20
2022-10-24T13:56:04.947Z,7.43
2022-10-24T13:58:42.135Z,6.95
2022-10-24T14:01:25.700Z,7.28
2022-10-24T14:03:54.487Z,6.60
2022-10-24T14:06:30.890Z,7.53
2022-10-24T14:09:07.131Z,7.20
2022-10-24T14:11:40.607Z,7.00
2022-10-24T14:14:25.495Z,6.97
2022-10-24T14:17:30.738Z,7.10
2022-10-24T14:20:22.703Z,7.30
2022-10-24T14:22:49.723Z,7.18
2022-10-24T14:25:24.411Z,7.47
2022-10-24T14:27:57.449Z,7.60
2022-10-24T14:30:30.531Z,8.02
2022-10-24T14:33:17.497Z,6.82
2022-10-24T14:35:44.272Z,7.63
2022-10-24T14:38:14.902Z,6.50
2022-10-24T14:40:47.080Z,6.57
2022-10-24T14:43:17.257Z,7.72
2022-10-24T14:46:09.061Z,9.73
2022-10-24T14:48:37.126Z,12.15
2022-10-24T14:51:10.291Z,9.38
2022-10-24T14:53:39.610Z,9.20
2022-10-24T14:56:20.488Z,9.85
2022-10-24T14:58:51.757Z,10.18
2022-10-24T15:01:20.142Z,10.93
2022-10-24T15:03:58.709Z,10.43
2022-10-24T15:06:40.488Z,8.20
2022-10-24T15:09:10.422Z,8.40
2022-10-24T15:11:46.022Z,8.00
2022-10-24T15:14:31.648Z,7.20
2022-10-24T15:17:03.194Z,7.20
2022-10-24T15:19:30.192Z,8.00
2022-10-24T15:21:57.013Z,6.80
2022-10-24T15:24:26.665Z,8.30
2022-10-24T15:27:10.198Z,9.85
2022-10-24T15:29:37.194Z,9.35
2022-10-24T15:32:06.161Z,10.35
2022-10-24T15:34:34.543Z,9.52
2022-10-24T15:37:03.627Z,8.85
2022-10-24T15:39:30.687Z,9.55
2022-10-24T15:41:57.546Z,9.90
2022-10-24T15:44:27.713Z,10.25
2022-10-24T15:46:55.583Z,10.43
2022-10-24T15:49:22.812Z,8.23
2022-10-24T15:51:50.856Z,10.77
2022-10-24T15:54:20.697Z,10.30
2022-10-24T15:56:47.888Z,9.88
2022-10-24T15:59:14.877Z,11.25
2022-10-24T16:01:47.497Z,9.68
2022-10-24T16:04:15.487Z,11.70
2022-10-24T16:06:42.893Z,11.82
2022-10-24T16:09:14.570Z,11.95
2022-10-24T16:11:41.584Z,12.82
2022-10-24T16:14:13.963Z,13.98
2022-10-24T16:16:41.004Z,14.30
2022-10-24T16:19:09.560Z,13.80
2022-10-24T16:21:37.314Z,14.85
2022-10-24T16:24:04.821Z,15.55
2022-10-24T16:26:31.623Z,13.73
2022-10-24T16:28:58.564Z,14.60
2022-10-24T16:31:25.400Z,15.90
2022-10-24T16:33:52.477Z,15.40
2022-10-24T16:36:22.241Z,15.40
2022-10-24T16:38:52.107Z,16.05
2022-10-24T16:41:21.972Z,16.77
2022-10-24T16:43:50.006Z,15.85
2022-10-24T16:46:19.375Z,15.70
2022-10-24T16:48:47.745Z,17.17
2022-10-24T16:51:27.592Z,16.83
2022-10-24T16:53:54.659Z,18.30
2022-10-24T16:56:21.358Z,17.83
2022-10-24T16:58:48.399Z,17.55
2022-10-24T17:01:16.346Z,17.37
2022-10-24T17:03:47.443Z,16.55
2022-10-24T17:06:14.783Z,16.02
2022-10-24T17:08:42.244Z,16.10
2022-10-24T17:11:32.185Z,16.52
2022-10-24T17:13:58.467Z,16.42
2022-10-24T17:16:25.359Z,15.20
2022-10-24T17:19:12.260Z,16.13
2022-10-24T17:21:42.263Z,15.95
2022-10-24T17:24:11.697Z,15.55
2022-10-24T17:26:39.831Z,15.00
2022-10-24T17:29:08.445Z,16.55
2022-10-24T17:31:35.820Z,15.15
2022-10-24T17:34:03.262Z,14.85
2022-10-24T17:36:34.813Z,16.00
2022-10-24T17:39:20.702Z,14.95
2022-10-24T17:41:47.757Z,17.20
2022-10-24T17:44:17.754Z,15.32
2022-10-24T17:46:45.387Z,14.30
2022-10-24T17:49:17.849Z,15.98
2022-10-24T17:51:48.648Z,14.10
2022-10-24T17:54:15.739Z,15.40
2022-10-24T17:56:42.938Z,14.20
2022-10-24T17:59:09.946Z,13.45
2022-10-24T18:01:36.919Z,13.50
2022-10-24T18:04:04.513Z,14.05
2022-10-24T18:06:31.502Z,13.63
2022-10-24T18:08:58.686Z,13.00
2022-10-24T18:11:25.452Z,13.48
2022-10-24T18:13:52.433Z,13.85
2022-10-24T18:16:20.143Z,13.95
2022-10-24T18:18:48.090Z,12.82
2022-10-24T18:21:24.334Z,12.73
2022-10-24T18:23:54.600Z,12.40
2022-10-24T18:26:24.428Z,11.98
2022-10-24T18:28:53.801Z,11.60
2022-10-24T18:31:30.377Z,13.00
2022-10-24T18:34:07.567Z,12.18
2022-10-24T18:36:36.944Z,13.23
2022-10-24T18:39:04.280Z,13.75
2022-10-24T18:41:34.730Z,13.00
2022-10-24T18:44:23.098Z,13.30
2022-10-24T18:46:51.633Z,14.82
2022-10-24T18:49:19.211Z,14.27
2022-10-24T18:51:53.095Z,14.65
2022-10-24T18:54:21.334Z,13.35
2022-10-24T18:56:48.783Z,13.63
2022-10-24T18:59:19.405Z,13.88
2022-10-24T19:02:19.369Z,13.88
2022-10-24T19:04:55.418Z,14.07
2022-10-24T19:07:22.391Z,14.02
2022-10-24T19:09:49.358Z,13.57
2022-10-24T19:12:16.303Z,13.40
2022-10-24T19:14:43.555Z,14.57
2022-10-24T19:17:14.180Z,14.73
2022-10-24T19:19:42.124Z,14.07
2022-10-24T19:22:09.333Z,13.63
2022-10-24T19:24:36.426Z,13.88
2022-10-24T19:27:03.415Z,13.50
2022-10-24T19:29:30.513Z,12.80
2022-10-24T19:31:58.545Z,12.95
2022-10-24T19:34:26.927Z,12.88
2022-10-24T19:36:53.689Z,12.48
2022-10-24T19:39:20.733Z,11.75
2022-10-24T19:41:47.500Z,12.30
2022-10-24T19:44:14.977Z,12.25
2022-10-24T19:46:41.675Z,11.13
2022-10-24T19:49:08.729Z,11.13
2022-10-24T19:51:35.696Z,10.73
2022-10-24T19:54:02.650Z,10.05
2022-10-24T19:56:31.386Z,10.23
2022-10-24T19:58:58.408Z,10.65
2022-10-24T20:01:28.142Z,10.07
2022-10-24T20:03:56.197Z,10.30
2022-10-24T20:06:26.216Z,9.32
2022-10-24T20:08:53.635Z,9.55
2022-10-24T20:11:20.808Z,9.27
2022-10-24T20:13:48.886Z,9.05
2022-10-24T20:16:16.327Z,8.20
2022-10-24T20:18:43.950Z,7.47
2022-10-24T20:21:13.304Z,7.32
2022-10-24T20:23:41.635Z,7.15
2022-10-24T20:26:14.808Z,7.43
2022-10-24T20:28:45.028Z,6.55
2022-10-24T20:31:26.290Z,6.57
2022-10-24T20:33:53.325Z,6.95
2022-10-24T20:36:21.291Z,6.60
2022-10-24T20:38:48.369Z,7.47
2022-10-24T20:41:15.258Z,5.85
2022-10-24T20:43:42.262Z,7.75
2022-10-24T20:46:09.096Z,6.68
2022-10-24T20:48:36.289Z,6.50
2022-10-24T20:51:08.361Z,6.75
2022-10-24T20:53:35.674Z,6.80
2022-10-24T20:56:07.895Z,6.65
2022-10-24T20:58:39.625Z,6.95
2022-10-24T21:01:17.923Z,5.88
2022-10-24T21:03:44.993Z,6.95
2022-10-24T21:06:32.626Z,5.72
2022-10-24T21:11:32.597Z,5.97
2022-10-24T21:14:04.645Z,6.18
2022-10-24T21:16:32.190Z,6.15
2022-10-24T21:18:59.872Z,6.05
2022-10-24T21:21:27.250Z,5.50
2022-10-24T21:24:02.237Z,5.72
2022-10-24T21:26:38.483Z,5.72
2022-10-24T21:29:31.741Z,5.10
2022-10-24T21:31:54.048Z,4.80
2022-10-24T21:34:21.056Z,5.28
2022-10-24T21:36:48.414Z,4.47
2022-10-24T21:39:16.519Z,5.10
2022-10-24T21:41:44.124Z,4.30
2022-10-24T21:44:11.920Z,4.85
2022-10-24T21:46:39.137Z,4.13
2022-10-24T21:49:06.243Z,4.60
2022-10-24T21:51:35.640Z,4.40
2022-10-24T21:54:05.539Z,4.50
2022-10-24T21:56:34.380Z,4.68
2022-10-24T22:01:37.372Z,5.32
2022-10-24T22:04:05.963Z,4.00
2022-10-24T22:06:34.889Z,3.83
2022-10-24T22:09:02.803Z,4.10
2022-10-24T22:11:31.880Z,4.13
2022-10-24T22:13:59.672Z,3.72
2022-10-24T22:16:29.216Z,4.43
2022-10-24T22:18:58.928Z,4.28
2022-10-24T22:21:28.707Z,3.83
2022-10-24T22:23:57.521Z,4.00
2022-10-24T22:26:25.337Z,3.80
2022-10-24T22:28:55.658Z,4.33
2022-10-24T22:31:24.555Z,4.47
2022-10-24T22:33:52.409Z,4.55
2022-10-24T22:36:40.212Z,3.95
2022-10-24T22:39:14.876Z,4.63
2022-10-24T22:41:42.585Z,4.65
2022-10-24T22:44:14.499Z,5.10
2022-10-24T22:47:23.896Z,4.60
2022-10-24T22:50:02.213Z,4.30
2022-10-24T22:52:29.455Z,4.28
2022-10-24T22:54:56.883Z,4.93
2022-10-24T22:57:24.260Z,4.32
2022-10-24T22:59:51.429Z,5.72
2022-10-24T23:02:36.630Z,4.63
2022-10-24T23:05:26.748Z,4.40
2022-10-24T23:08:03.379Z,4.80
2022-10-24T23:10:30.622Z,4.47
2022-10-24T23:12:57.829Z,5.18
2022-10-24T23:15:25.180Z,4.78
2022-10-24T23:17:52.401Z,4.47
2022-10-24T23:20:44.240Z,4.68
2022-10-24T23:23:28.801Z,4.70
2022-10-24T23:26:12.552Z,5.57
2022-10-24T23:29:02.631Z,4.68
2022-10-24T23:31:29.813Z,4.90
2022-10-24T23:33:57.036Z,5.88
2022-10-24T23:36:26.628Z,4.65
2022-10-24T23:38:56.662Z,4.15
2022-10-24T23:41:23.835Z,5.10
2022-10-24T23:43:50.877Z,5.13
2022-10-24T23:46:34.671Z,5.27
2022-10-24T23:49:27.566Z,5.28
2022-10-24T23:52:03.245Z,5.32
2022-10-24T23:54:32.777Z,7.10
2022-10-24T23:57:00.494Z,5.70
2022-10-24T23:59:27.791Z,5.70
